sensor_id;sensor_type;location;lat;lon;timestamp;P1;durP1;ratioP1;P2;durP2;ratioP2
2211;SDS011;48849;48.758;9.158;2023-09-08T00:00:15;7.80;;;7.03;;
2211;SDS011;48849;48.758;9.158;2023-09-08T00:02:41;11.30;;;7.57;;
2211;SDS011;48849;48.758;9.158;2023-09-08T00:05:08;9.00;;;7.10;;
2211;SDS011;48849;48.758;9.158;2023-09-08T00:07:35;7.03;;;6.43;;
2211;SDS011;48849;48.758;9.158;2023-09-08T00:10:03;8.03;;;7.33;;
2211;SDS011;48849;48.758;9.158;2023-09-08T00:12:31;7.63;;;6.93;;
2211;SDS011;48849;48.758;9.158;2023-09-08T00:14:58;9.57;;;7.47;;
2211;SDS011;48849;48.758;9.158;2023-09-08T00:17:26;8.93;;;7.43;;
2211;SDS011;48849;48.758;9.158;2023-09-08T00:19:52;7.90;;;7.10;;
2211;SDS011;48849;48.758;9.158;2023-09-08T00:22:19;8.30;;;7.60;;
2211;SDS011;48849;48.758;9.158;2023-09-08T00:24:46;7.60;;;6.90;;
2211;SDS011;48849;48.758;9.158;2023-09-08T00:27:13;9.13;;;7.03;;
2211;SDS011;48849;48.758;9.158;2023-09-08T00:29:41;8.50;;;7.77;;
2211;SDS011;48849;48.758;9.158;2023-09-08T00:32:08;9.63;;;8.07;;
2211;SDS011;48849;48.758;9.158;2023-09-08T00:34:34;10.40;;;7.37;;
2211;SDS011;48849;48.758;9.158;2023-09-08T00:39:37;8.60;;;7.60;;
2211;SDS011;48849;48.758;9.158;2023-09-08T00:42:04;8.57;;;7.77;;
2211;SDS011;48849;48.758;9.158;2023-09-08T00:44:32;9.00;;;8.10;;
2211;SDS011;48849;48.758;9.158;2023-09-08T00:47:00;9.50;;;8.50;;
2211;SDS011;48849;48.758;9.158;2023-09-08T00:49:26;8.30;;;7.60;;
2211;SDS011;48849;48.758;9.158;2023-09-08T00:51:53;9.33;;;8.30;;
2211;SDS011;48849;48.758;9.158;2023-09-08T00:54:20;8.43;;;7.63;;
2211;SDS011;48849;48.758;9.158;2023-09-08T00:56:47;8.87;;;7.93;;
2211;SDS011;48849;48.758;9.158;2023-09-08T00:59:17;8.90;;;8.10;;
2211;SDS011;48849;48.758;9.158;2023-09-08T01:01:44;8.63;;;7.73;;
2211;SDS011;48849;48.758;9.158;2023-09-08T01:04:12;8.20;;;7.53;;
2211;SDS011;48849;48.758;9.158;2023-09-08T01:06:39;7.97;;;7.27;;
2211;SDS011;48849;48.758;9.158;2023-09-08T01:09:06;8.80;;;7.00;;
2211;SDS011;48849;48.758;9.158;2023-09-08T01:11:33;8.43;;;7.63;;
2211;SDS011;48849;48.758;9.158;2023-09-08T01:14:00;7.87;;;6.70;;
2211;SDS011;48849;48.758;9.158;2023-09-08T01:16:27;8.83;;;7.40;;
2211;SDS011;48849;48.758;9.158;2023-09-08T01:18:54;8.73;;;6.83;;
2211;SDS011;48849;48.758;9.158;2023-09-08T01:21:38;8.67;;;7.37;;
2211;SDS011;48849;48.758;9.158;2023-09-08T01:24:33;8.03;;;7.23;;
2211;SDS011;48849;48.758;9.158;2023-09-08T01:27:17;7.87;;;7.07;;
2211;SDS011;48849;48.758;9.158;2023-09-08T01:29:46;8.27;;;7.40;;
2211;SDS011;48849;48.758;9.158;2023-09-08T01:32:14;7.03;;;6.40;;
2211;SDS011;48849;48.758;9.158;2023-09-08T01:34:42;7.60;;;6.80;;
2211;SDS011;48849;48.758;9.158;2023-09-08T01:37:09;7.63;;;6.87;;
2211;SDS011;48849;48.758;9.158;2023-09-08T01:39:35;7.73;;;6.93;;
2211;SDS011;48849;48.758;9.158;2023-09-08T01:42:02;11.17;;;7.00;;
2211;SDS011;48849;48.758;9.158;2023-09-08T01:44:31;11.50;;;7.97;;
2211;SDS011;48849;48.758;9.158;2023-09-08T01:46:57;8.03;;;7.13;;
2211;SDS011;48849;48.758;9.158;2023-09-08T01:49:24;7.43;;;6.73;;
2211;SDS011;48849;48.758;9.158;2023-09-08T01:51:51;7.67;;;6.97;;
2211;SDS011;48849;48.758;9.158;2023-09-08T01:54:18;7.73;;;7.03;;
2211;SDS011;48849;48.758;9.158;2023-09-08T01:56:45;7.97;;;6.93;;
2211;SDS011;48849;48.758;9.158;2023-09-08T01:59:12;8.10;;;7.40;;
2211;SDS011;48849;48.758;9.158;2023-09-08T02:01:40;9.13;;;6.60;;
2211;SDS011;48849;48.758;9.158;2023-09-08T02:04:06;8.30;;;7.60;;
2211;SDS011;48849;48.758;9.158;2023-09-08T02:06:33;9.27;;;7.73;;
2211;SDS011;48849;48.758;9.158;2023-09-08T02:09:00;10.50;;;8.23;;
2211;SDS011;48849;48.758;9.158;2023-09-08T02:11:27;8.30;;;7.50;;
2211;SDS011;48849;48.758;9.158;2023-09-08T02:13:53;8.03;;;7.33;;
2211;SDS011;48849;48.758;9.158;2023-09-08T02:16:20;7.70;;;6.83;;
2211;SDS011;48849;48.758;9.158;2023-09-08T02:18:50;7.93;;;7.27;;
2211;SDS011;48849;48.758;9.158;2023-09-08T02:21:16;8.50;;;7.33;;
2211;SDS011;48849;48.758;9.158;2023-09-08T02:23:43;8.10;;;7.30;;
2211;SDS011;48849;48.758;9.158;2023-09-08T02:26:10;8.97;;;8.17;;
2211;SDS011;48849;48.758;9.158;2023-09-08T02:28:36;7.53;;;6.83;;
2211;SDS011;48849;48.758;9.158;2023-09-08T02:31:03;10.00;;;7.57;;
2211;SDS011;48849;48.758;9.158;2023-09-08T02:33:30;9.10;;;7.53;;
2211;SDS011;48849;48.758;9.158;2023-09-08T02:36:02;8.27;;;7.50;;
2211;SDS011;48849;48.758;9.158;2023-09-08T02:38:29;10.57;;;7.27;;
2211;SDS011;48849;48.758;9.158;2023-09-08T02:40:56;7.70;;;6.80;;
2211;SDS011;48849;48.758;9.158;2023-09-08T02:43:23;7.87;;;7.17;;
2211;SDS011;48849;48.758;9.158;2023-09-08T02:45:50;8.93;;;8.03;;
2211;SDS011;48849;48.758;9.158;2023-09-08T02:48:16;7.60;;;7.00;;
2211;SDS011;48849;48.758;9.158;2023-09-08T02:50:43;8.73;;;7.20;;
2211;SDS011;48849;48.758;9.158;2023-09-08T02:53:11;8.50;;;7.60;;
2211;SDS011;48849;48.758;9.158;2023-09-08T02:55:38;9.27;;;7.50;;
2211;SDS011;48849;48.758;9.158;2023-09-08T02:58:05;8.87;;;7.93;;
2211;SDS011;48849;48.758;9.158;2023-09-08T03:00:31;9.40;;;8.50;;
2211;SDS011;48849;48.758;9.158;2023-09-08T03:02:58;9.33;;;8.13;;
2211;SDS011;48849;48.758;9.158;2023-09-08T03:05:25;10.80;;;8.13;;
2211;SDS011;48849;48.758;9.158;2023-09-08T03:07:52;9.73;;;8.73;;
2211;SDS011;48849;48.758;9.158;2023-09-08T03:10:20;9.17;;;8.27;;
2211;SDS011;48849;48.758;9.158;2023-09-08T03:12:46;8.67;;;7.83;;
2211;SDS011;48849;48.758;9.158;2023-09-08T03:15:13;10.67;;;7.97;;
2211;SDS011;48849;48.758;9.158;2023-09-08T03:17:40;8.33;;;7.50;;
2211;SDS011;48849;48.758;9.158;2023-09-08T03:20:08;8.30;;;7.50;;
2211;SDS011;48849;48.758;9.158;2023-09-08T03:22:38;8.17;;;7.10;;
2211;SDS011;48849;48.758;9.158;2023-09-08T03:25:05;8.37;;;7.57;;
2211;SDS011;48849;48.758;9.158;2023-09-08T03:27:33;7.73;;;6.93;;
2211;SDS011;48849;48.758;9.158;2023-09-08T03:30:00;8.27;;;7.40;;
2211;SDS011;48849;48.758;9.158;2023-09-08T03:32:28;7.03;;;6.43;;
2211;SDS011;48849;48.758;9.158;2023-09-08T03:34:54;7.70;;;7.00;;
2211;SDS011;48849;48.758;9.158;2023-09-08T03:37:21;8.10;;;7.40;;
2211;SDS011;48849;48.758;9.158;2023-09-08T03:39:48;7.60;;;6.87;;
2211;SDS011;48849;48.758;9.158;2023-09-08T03:42:15;7.73;;;6.60;;
2211;SDS011;48849;48.758;9.158;2023-09-08T03:44:43;7.80;;;7.10;;
2211;SDS011;48849;48.758;9.158;2023-09-08T03:47:10;8.77;;;7.10;;
2211;SDS011;48849;48.758;9.158;2023-09-08T03:49:37;8.23;;;7.50;;
2211;SDS011;48849;48.758;9.158;2023-09-08T03:52:04;8.10;;;7.33;;
2211;SDS011;48849;48.758;9.158;2023-09-08T03:54:31;9.70;;;7.77;;
2211;SDS011;48849;48.758;9.158;2023-09-08T03:56:59;7.90;;;7.03;;
2211;SDS011;48849;48.758;9.158;2023-09-08T03:59:25;8.30;;;7.50;;
2211;SDS011;48849;48.758;9.158;2023-09-08T04:01:53;6.70;;;6.17;;
2211;SDS011;48849;48.758;9.158;2023-09-08T04:04:20;8.33;;;7.00;;
2211;SDS011;48849;48.758;9.158;2023-09-08T04:06:47;8.07;;;7.27;;
2211;SDS011;48849;48.758;9.158;2023-09-08T04:09:14;7.87;;;7.17;;
2211;SDS011;48849;48.758;9.158;2023-09-08T04:11:40;7.93;;;7.10;;
2211;SDS011;48849;48.758;9.158;2023-09-08T04:14:07;7.37;;;6.77;;
2211;SDS011;48849;48.758;9.158;2023-09-08T04:16:34;7.80;;;7.00;;
2211;SDS011;48849;48.758;9.158;2023-09-08T04:19:02;8.27;;;7.47;;
2211;SDS011;48849;48.758;9.158;2023-09-08T04:21:29;8.73;;;7.87;;
2211;SDS011;48849;48.758;9.158;2023-09-08T04:23:55;9.43;;;7.47;;
2211;SDS011;48849;48.758;9.158;2023-09-08T04:26:22;8.70;;;7.80;;
2211;SDS011;48849;48.758;9.158;2023-09-08T04:28:49;8.67;;;7.77;;
2211;SDS011;48849;48.758;9.158;2023-09-08T04:31:16;12.00;;;7.80;;
2211;SDS011;48849;48.758;9.158;2023-09-08T04:33:43;8.80;;;7.37;;
2211;SDS011;48849;48.758;9.158;2023-09-08T04:36:11;8.03;;;7.23;;
2211;SDS011;48849;48.758;9.158;2023-09-08T04:38:38;10.70;;;7.70;;
2211;SDS011;48849;48.758;9.158;2023-09-08T04:41:06;8.10;;;7.40;;
2211;SDS011;48849;48.758;9.158;2023-09-08T04:43:33;9.20;;;7.33;;
2211;SDS011;48849;48.758;9.158;2023-09-08T04:46:00;9.33;;;7.70;;
2211;SDS011;48849;48.758;9.158;2023-09-08T04:48:28;8.67;;;7.60;;
2211;SDS011;48849;48.758;9.158;2023-09-08T04:50:54;9.07;;;7.70;;
2211;SDS011;48849;48.758;9.158;2023-09-08T04:53:23;8.93;;;7.63;;
2211;SDS011;48849;48.758;9.158;2023-09-08T04:55:50;9.00;;;7.67;;
2211;SDS011;48849;48.758;9.158;2023-09-08T04:58:17;8.60;;;7.80;;
2211;SDS011;48849;48.758;9.158;2023-09-08T05:00:44;9.70;;;7.10;;
2211;SDS011;48849;48.758;9.158;2023-09-08T05:03:10;8.10;;;7.30;;
2211;SDS011;48849;48.758;9.158;2023-09-08T05:05:37;10.53;;;7.70;;
2211;SDS011;48849;48.758;9.158;2023-09-08T05:08:04;10.03;;;7.67;;
2211;SDS011;48849;48.758;9.158;2023-09-08T05:10:32;8.50;;;7.60;;
2211;SDS011;48849;48.758;9.158;2023-09-08T05:12:59;9.77;;;8.00;;
2211;SDS011;48849;48.758;9.158;2023-09-08T05:15:26;9.47;;;8.57;;
2211;SDS011;48849;48.758;9.158;2023-09-08T05:17:52;8.90;;;8.10;;
2211;SDS011;48849;48.758;9.158;2023-09-08T05:20:19;8.77;;;7.93;;
2211;SDS011;48849;48.758;9.158;2023-09-08T05:22:46;9.10;;;8.20;;
2211;SDS011;48849;48.758;9.158;2023-09-08T05:25:13;8.80;;;7.90;;
2211;SDS011;48849;48.758;9.158;2023-09-08T05:27:41;11.47;;;8.40;;
2211;SDS011;48849;48.758;9.158;2023-09-08T05:30:08;10.47;;;9.10;;
2211;SDS011;48849;48.758;9.158;2023-09-08T05:32:35;9.63;;;8.63;;
2211;SDS011;48849;48.758;9.158;2023-09-08T05:35:02;10.63;;;9.53;;
2211;SDS011;48849;48.758;9.158;2023-09-08T05:37:29;10.70;;;9.60;;
2211;SDS011;48849;48.758;9.158;2023-09-08T05:39:56;8.57;;;7.67;;
2211;SDS011;48849;48.758;9.158;2023-09-08T05:42:22;9.27;;;8.40;;
2211;SDS011;48849;48.758;9.158;2023-09-08T05:44:50;11.77;;;8.80;;
2211;SDS011;48849;48.758;9.158;2023-09-08T05:47:19;8.73;;;7.70;;
2211;SDS011;48849;48.758;9.158;2023-09-08T05:49:46;9.37;;;8.37;;
2211;SDS011;48849;48.758;9.158;2023-09-08T05:52:13;10.33;;;8.63;;
2211;SDS011;48849;48.758;9.158;2023-09-08T05:54:40;10.30;;;8.60;;
2211;SDS011;48849;48.758;9.158;2023-09-08T05:57:06;12.63;;;10.70;;
2211;SDS011;48849;48.758;9.158;2023-09-08T05:59:33;12.47;;;11.17;;
2211;SDS011;48849;48.758;9.158;2023-09-08T06:02:01;12.10;;;10.90;;
2211;SDS011;48849;48.758;9.158;2023-09-08T06:04:29;10.73;;;9.57;;
2211;SDS011;48849;48.758;9.158;2023-09-08T06:32:48;10.30;;;8.40;;
2211;SDS011;48849;48.758;9.158;2023-09-08T06:35:19;10.00;;;9.00;;
2211;SDS011;48849;48.758;9.158;2023-09-08T06:37:53;9.20;;;8.30;;
2211;SDS011;48849;48.758;9.158;2023-09-08T06:40:22;9.57;;;8.57;;
2211;SDS011;48849;48.758;9.158;2023-09-08T06:42:57;12.50;;;8.47;;
2211;SDS011;48849;48.758;9.158;2023-09-08T06:45:26;9.30;;;8.40;;
2211;SDS011;48849;48.758;9.158;2023-09-08T06:51:13;10.10;;;8.77;;
2211;SDS011;48849;48.758;9.158;2023-09-08T06:53:46;10.30;;;9.03;;
2211;SDS011;48849;48.758;9.158;2023-09-08T06:56:23;9.73;;;8.67;;
2211;SDS011;48849;48.758;9.158;2023-09-08T06:58:50;9.73;;;8.60;;
2211;SDS011;48849;48.758;9.158;2023-09-08T07:01:22;10.40;;;9.40;;
2211;SDS011;48849;48.758;9.158;2023-09-08T07:03:51;11.40;;;9.80;;
2211;SDS011;48849;48.758;9.158;2023-09-08T07:06:19;11.90;;;10.50;;
2211;SDS011;48849;48.758;9.158;2023-09-08T07:08:47;10.60;;;9.60;;
2211;SDS011;48849;48.758;9.158;2023-09-08T07:11:18;10.30;;;9.30;;
2211;SDS011;48849;48.758;9.158;2023-09-08T07:13:49;10.37;;;9.30;;
2211;SDS011;48849;48.758;9.158;2023-09-08T07:16:19;11.67;;;10.40;;
2211;SDS011;48849;48.758;9.158;2023-09-08T07:18:49;11.83;;;10.70;;
2211;SDS011;48849;48.758;9.158;2023-09-08T07:21:16;12.23;;;10.83;;
2211;SDS011;48849;48.758;9.158;2023-09-08T07:23:45;13.17;;;11.77;;
2211;SDS011;48849;48.758;9.158;2023-09-08T07:39:23;11.30;;;9.10;;
2211;SDS011;48849;48.758;9.158;2023-09-08T07:41:49;10.37;;;9.37;;
2211;SDS011;48849;48.758;9.158;2023-09-08T07:44:17;11.03;;;9.97;;
2211;SDS011;48849;48.758;9.158;2023-09-08T07:46:44;11.10;;;9.77;;
2211;SDS011;48849;48.758;9.158;2023-09-08T07:49:11;10.47;;;9.23;;
2211;SDS011;48849;48.758;9.158;2023-09-08T07:51:38;10.50;;;9.40;;
2211;SDS011;48849;48.758;9.158;2023-09-08T07:54:05;10.63;;;9.53;;
2211;SDS011;48849;48.758;9.158;2023-09-08T07:56:33;10.83;;;9.73;;
2211;SDS011;48849;48.758;9.158;2023-09-08T07:59:00;10.83;;;9.83;;
2211;SDS011;48849;48.758;9.158;2023-09-08T08:01:26;10.87;;;9.90;;
2211;SDS011;48849;48.758;9.158;2023-09-08T08:03:53;9.70;;;8.80;;
2211;SDS011;48849;48.758;9.158;2023-09-08T08:06:20;10.60;;;9.60;;
2211;SDS011;48849;48.758;9.158;2023-09-08T08:08:47;11.50;;;10.30;;
2211;SDS011;48849;48.758;9.158;2023-09-08T08:11:14;10.70;;;9.60;;
2211;SDS011;48849;48.758;9.158;2023-09-08T08:13:45;11.40;;;10.30;;
2211;SDS011;48849;48.758;9.158;2023-09-08T08:16:12;10.50;;;9.53;;
2211;SDS011;48849;48.758;9.158;2023-09-08T08:18:39;14.43;;;9.33;;
2211;SDS011;48849;48.758;9.158;2023-09-08T08:21:06;10.70;;;9.60;;
2211;SDS011;48849;48.758;9.158;2023-09-08T08:23:33;10.80;;;9.80;;
2211;SDS011;48849;48.758;9.158;2023-09-08T08:26:01;10.10;;;9.10;;
2211;SDS011;48849;48.758;9.158;2023-09-08T08:28:28;11.13;;;9.40;;
2211;SDS011;48849;48.758;9.158;2023-09-08T08:30:56;9.40;;;8.60;;
2211;SDS011;48849;48.758;9.158;2023-09-08T08:33:23;10.33;;;9.27;;
2211;SDS011;48849;48.758;9.158;2023-09-08T08:35:51;10.10;;;8.70;;
2211;SDS011;48849;48.758;9.158;2023-09-08T08:38:18;10.40;;;9.50;;
2211;SDS011;48849;48.758;9.158;2023-09-08T08:40:45;10.67;;;9.67;;
2211;SDS011;48849;48.758;9.158;2023-09-08T08:43:12;10.57;;;9.60;;
2211;SDS011;48849;48.758;9.158;2023-09-08T08:45:41;10.90;;;9.80;;
2211;SDS011;48849;48.758;9.158;2023-09-08T08:48:10;10.93;;;9.80;;
2211;SDS011;48849;48.758;9.158;2023-09-08T08:50:40;11.77;;;10.10;;
2211;SDS011;48849;48.758;9.158;2023-09-08T08:53:09;11.10;;;10.13;;
2211;SDS011;48849;48.758;9.158;2023-09-08T08:55:38;13.10;;;10.17;;
2211;SDS011;48849;48.758;9.158;2023-09-08T08:58:05;10.37;;;9.47;;
2211;SDS011;48849;48.758;9.158;2023-09-08T09:00:33;10.53;;;9.40;;
2211;SDS011;48849;48.758;9.158;2023-09-08T09:03:01;10.70;;;9.60;;
2211;SDS011;48849;48.758;9.158;2023-09-08T09:05:31;10.27;;;9.37;;
2211;SDS011;48849;48.758;9.158;2023-09-08T09:08:00;10.07;;;8.77;;
2211;SDS011;48849;48.758;9.158;2023-09-08T09:10:28;10.33;;;9.43;;
2211;SDS011;48849;48.758;9.158;2023-09-08T09:12:55;9.13;;;8.33;;
2211;SDS011;48849;48.758;9.158;2023-09-08T09:15:27;10.70;;;9.70;;
2211;SDS011;48849;48.758;9.158;2023-09-08T09:18:04;11.60;;;10.40;;
2211;SDS011;48849;48.758;9.158;2023-09-08T09:20:36;12.90;;;11.70;;
2211;SDS011;48849;48.758;9.158;2023-09-08T09:23:05;12.80;;;11.70;;
2211;SDS011;48849;48.758;9.158;2023-09-08T09:25:33;13.67;;;12.40;;
2211;SDS011;48849;48.758;9.158;2023-09-08T09:28:01;13.00;;;11.80;;
2211;SDS011;48849;48.758;9.158;2023-09-08T09:30:45;20.73;;;13.77;;
2211;SDS011;48849;48.758;9.158;2023-09-08T09:33:14;23.10;;;20.70;;
2211;SDS011;48849;48.758;9.158;2023-09-08T09:35:47;24.00;;;19.97;;
2211;SDS011;48849;48.758;9.158;2023-09-08T09:59:46;22.03;;;19.63;;
2211;SDS011;48849;48.758;9.158;2023-09-08T10:02:17;20.80;;;18.60;;
2211;SDS011;48849;48.758;9.158;2023-09-08T10:04:46;21.60;;;18.97;;
2211;SDS011;48849;48.758;9.158;2023-09-08T10:07:15;22.07;;;19.70;;
2211;SDS011;48849;48.758;9.158;2023-09-08T10:09:44;19.00;;;17.10;;
2211;SDS011;48849;48.758;9.158;2023-09-08T10:12:12;17.50;;;15.70;;
2211;SDS011;48849;48.758;9.158;2023-09-08T10:14:41;15.13;;;13.63;;
2211;SDS011;48849;48.758;9.158;2023-09-08T10:17:11;16.53;;;14.83;;
2211;SDS011;48849;48.758;9.158;2023-09-08T10:19:44;15.83;;;14.33;;
2211;SDS011;48849;48.758;9.158;2023-09-08T10:22:17;16.37;;;14.77;;
2211;SDS011;48849;48.758;9.158;2023-09-08T10:24:49;17.83;;;15.33;;
2211;SDS011;48849;48.758;9.158;2023-09-08T10:27:20;18.67;;;15.93;;
2211;SDS011;48849;48.758;9.158;2023-09-08T10:29:48;16.57;;;14.20;;
2211;SDS011;48849;48.758;9.158;2023-09-08T10:32:21;22.13;;;17.43;;
2211;SDS011;48849;48.758;9.158;2023-09-08T10:34:49;20.60;;;18.58;;
2211;SDS011;48849;48.758;9.158;2023-09-08T10:37:19;20.67;;;18.53;;
2211;SDS011;48849;48.758;9.158;2023-09-08T10:45:14;16.23;;;14.70;;
2211;SDS011;48849;48.758;9.158;2023-09-08T10:47:55;16.10;;;14.40;;
2211;SDS011;48849;48.758;9.158;2023-09-08T10:50:27;16.00;;;14.50;;
2211;SDS011;48849;48.758;9.158;2023-09-08T11:19:51;12.20;;;11.10;;
2211;SDS011;48849;48.758;9.158;2023-09-08T11:52:34;12.37;;;11.07;;
2211;SDS011;48849;48.758;9.158;2023-09-08T11:55:04;14.73;;;13.33;;
2211;SDS011;48849;48.758;9.158;2023-09-08T11:57:32;22.30;;;13.60;;
2211;SDS011;48849;48.758;9.158;2023-09-08T12:00:00;13.70;;;12.30;;
2211;SDS011;48849;48.758;9.158;2023-09-08T12:02:33;13.43;;;12.07;;
2211;SDS011;48849;48.758;9.158;2023-09-08T12:11:12;23.23;;;21.13;;
2211;SDS011;48849;48.758;9.158;2023-09-08T12:13:41;15.37;;;13.97;;
2211;SDS011;48849;48.758;9.158;2023-09-08T12:16:17;14.90;;;13.50;;
2211;SDS011;48849;48.758;9.158;2023-09-08T12:18:45;12.07;;;11.07;;
2211;SDS011;48849;48.758;9.158;2023-09-08T12:21:13;10.87;;;9.87;;
2211;SDS011;48849;48.758;9.158;2023-09-08T12:23:47;10.10;;;9.20;;
2211;SDS011;48849;48.758;9.158;2023-09-08T12:26:20;10.10;;;9.20;;
2211;SDS011;48849;48.758;9.158;2023-09-08T12:35:21;14.03;;;12.40;;
2211;SDS011;48849;48.758;9.158;2023-09-08T12:38:03;13.77;;;12.47;;
2211;SDS011;48849;48.758;9.158;2023-09-08T12:40:43;17.37;;;15.67;;
2211;SDS011;48849;48.758;9.158;2023-09-08T12:43:26;14.33;;;12.97;;
2211;SDS011;48849;48.758;9.158;2023-09-08T12:45:54;19.03;;;17.17;;
2211;SDS011;48849;48.758;9.158;2023-09-08T12:48:36;22.00;;;20.00;;
2211;SDS011;48849;48.758;9.158;2023-09-08T12:51:06;15.60;;;14.10;;
2211;SDS011;48849;48.758;9.158;2023-09-08T12:53:36;15.17;;;13.37;;
2211;SDS011;48849;48.758;9.158;2023-09-08T12:56:03;13.27;;;12.07;;
2211;SDS011;48849;48.758;9.158;2023-09-08T12:58:39;11.70;;;10.70;;
2211;SDS011;48849;48.758;9.158;2023-09-08T13:01:09;13.50;;;9.27;;
2211;SDS011;48849;48.758;9.158;2023-09-08T13:03:51;11.30;;;10.10;;
2211;SDS011;48849;48.758;9.158;2023-09-08T13:06:26;10.00;;;9.10;;
2211;SDS011;48849;48.758;9.158;2023-09-08T13:08:59;41.77;;;37.70;;
2211;SDS011;48849;48.758;9.158;2023-09-08T13:11:29;33.47;;;30.03;;
2211;SDS011;48849;48.758;9.158;2023-09-08T13:14:08;20.80;;;18.80;;
2211;SDS011;48849;48.758;9.158;2023-09-08T13:16:45;23.20;;;20.87;;
2211;SDS011;48849;48.758;9.158;2023-09-08T13:19:14;19.40;;;17.73;;
2211;SDS011;48849;48.758;9.158;2023-09-08T13:21:46;31.67;;;28.60;;
2211;SDS011;48849;48.758;9.158;2023-09-08T13:24:13;24.23;;;22.00;;
2211;SDS011;48849;48.758;9.158;2023-09-08T13:26:48;18.17;;;16.50;;
2211;SDS011;48849;48.758;9.158;2023-09-08T13:29:19;15.80;;;14.37;;
2211;SDS011;48849;48.758;9.158;2023-09-08T13:31:52;14.50;;;13.20;;
2211;SDS011;48849;48.758;9.158;2023-09-08T13:34:28;13.80;;;12.60;;
2211;SDS011;48849;48.758;9.158;2023-09-08T13:37:03;12.57;;;11.47;;
2211;SDS011;48849;48.758;9.158;2023-09-08T13:39:33;13.83;;;11.60;;
2211;SDS011;48849;48.758;9.158;2023-09-08T13:42:00;15.60;;;14.00;;
2211;SDS011;48849;48.758;9.158;2023-09-08T13:44:54;17.17;;;15.37;;
2211;SDS011;48849;48.758;9.158;2023-09-08T13:47:23;20.10;;;18.27;;
2211;SDS011;48849;48.758;9.158;2023-09-08T13:49:57;23.20;;;20.90;;
2211;SDS011;48849;48.758;9.158;2023-09-08T13:52:24;33.40;;;29.97;;
2211;SDS011;48849;48.758;9.158;2023-09-08T13:54:53;35.17;;;31.77;;
2211;SDS011;48849;48.758;9.158;2023-09-08T13:57:28;27.87;;;25.27;;
2211;SDS011;48849;48.758;9.158;2023-09-08T14:00:03;23.60;;;21.40;;
2211;SDS011;48849;48.758;9.158;2023-09-08T14:02:53;17.07;;;15.47;;
2211;SDS011;48849;48.758;9.158;2023-09-08T14:05:46;17.20;;;15.50;;
2211;SDS011;48849;48.758;9.158;2023-09-08T14:08:39;14.27;;;12.87;;
2211;SDS011;48849;48.758;9.158;2023-09-08T14:14:31;12.67;;;11.47;;
2211;SDS011;48849;48.758;9.158;2023-09-08T14:16:59;12.43;;;11.33;;
2211;SDS011;48849;48.758;9.158;2023-09-08T14:19:26;14.40;;;13.00;;
2211;SDS011;48849;48.758;9.158;2023-09-08T14:21:53;13.93;;;12.53;;
2211;SDS011;48849;48.758;9.158;2023-09-08T14:24:21;17.60;;;15.80;;
2211;SDS011;48849;48.758;9.158;2023-09-08T14:26:51;16.80;;;15.20;;
2211;SDS011;48849;48.758;9.158;2023-09-08T14:29:18;17.00;;;15.40;;
2211;SDS011;48849;48.758;9.158;2023-09-08T14:31:48;21.63;;;19.60;;
2211;SDS011;48849;48.758;9.158;2023-09-08T14:34:16;28.07;;;25.20;;
2211;SDS011;48849;48.758;9.158;2023-09-08T14:37:21;23.33;;;21.10;;
2211;SDS011;48849;48.758;9.158;2023-09-08T14:40:44;22.80;;;20.60;;
2211;SDS011;48849;48.758;9.158;2023-09-08T14:43:44;19.90;;;18.00;;
2211;SDS011;48849;48.758;9.158;2023-09-08T14:56:28;17.67;;;16.07;;
2211;SDS011;48849;48.758;9.158;2023-09-08T15:18:11;15.90;;;14.40;;
2211;SDS011;48849;48.758;9.158;2023-09-08T15:24:09;13.43;;;12.23;;
2211;SDS011;48849;48.758;9.158;2023-09-08T15:46:01;10.73;;;9.63;;
2211;SDS011;48849;48.758;9.158;2023-09-08T16:01:21;10.80;;;9.80;;
2211;SDS011;48849;48.758;9.158;2023-09-08T16:04:15;12.43;;;11.33;;
2211;SDS011;48849;48.758;9.158;2023-09-08T16:06:45;12.47;;;11.47;;
2211;SDS011;48849;48.758;9.158;2023-09-08T16:09:12;13.73;;;12.33;;
2211;SDS011;48849;48.758;9.158;2023-09-08T16:19:27;12.83;;;11.63;;
2211;SDS011;48849;48.758;9.158;2023-09-08T16:24:50;13.20;;;12.00;;
2211;SDS011;48849;48.758;9.158;2023-09-08T16:27:18;12.90;;;11.70;;
2211;SDS011;48849;48.758;9.158;2023-09-08T16:33:08;11.87;;;10.77;;
2211;SDS011;48849;48.758;9.158;2023-09-08T16:45:07;14.93;;;13.47;;
2211;SDS011;48849;48.758;9.158;2023-09-08T16:48:18;14.40;;;13.10;;
2211;SDS011;48849;48.758;9.158;2023-09-08T16:56:44;13.93;;;11.90;;
2211;SDS011;48849;48.758;9.158;2023-09-08T17:03:01;12.93;;;11.70;;
2211;SDS011;48849;48.758;9.158;2023-09-08T17:05:29;11.97;;;10.83;;
2211;SDS011;48849;48.758;9.158;2023-09-08T17:08:04;12.67;;;11.43;;
2211;SDS011;48849;48.758;9.158;2023-09-08T17:10:36;11.40;;;10.40;;
2211;SDS011;48849;48.758;9.158;2023-09-08T17:13:12;12.57;;;11.37;;
2211;SDS011;48849;48.758;9.158;2023-09-08T17:15:54;11.00;;;10.00;;
2211;SDS011;48849;48.758;9.158;2023-09-08T17:18:22;11.73;;;10.73;;
2211;SDS011;48849;48.758;9.158;2023-09-08T17:20:50;10.77;;;9.87;;
2211;SDS011;48849;48.758;9.158;2023-09-08T17:23:16;13.90;;;12.70;;
2211;SDS011;48849;48.758;9.158;2023-09-08T17:25:43;15.00;;;13.50;;
2211;SDS011;48849;48.758;9.158;2023-09-08T17:28:13;16.03;;;14.57;;
2211;SDS011;48849;48.758;9.158;2023-09-08T17:30:40;16.47;;;14.97;;
2211;SDS011;48849;48.758;9.158;2023-09-08T17:33:06;16.80;;;15.13;;
2211;SDS011;48849;48.758;9.158;2023-09-08T17:35:35;19.33;;;17.50;;
2211;SDS011;48849;48.758;9.158;2023-09-08T17:38:03;17.80;;;16.13;;
2211;SDS011;48849;48.758;9.158;2023-09-08T17:40:30;19.17;;;17.30;;
2211;SDS011;48849;48.758;9.158;2023-09-08T17:42:57;17.60;;;15.90;;
2211;SDS011;48849;48.758;9.158;2023-09-08T17:45:24;18.37;;;16.57;;
2211;SDS011;48849;48.758;9.158;2023-09-08T17:47:51;16.27;;;14.67;;
2211;SDS011;48849;48.758;9.158;2023-09-08T17:50:18;15.93;;;14.23;;
2211;SDS011;48849;48.758;9.158;2023-09-08T17:52:46;15.90;;;14.40;;
2211;SDS011;48849;48.758;9.158;2023-09-08T17:55:12;18.63;;;16.73;;
2211;SDS011;48849;48.758;9.158;2023-09-08T17:57:39;20.30;;;18.40;;
2211;SDS011;48849;48.758;9.158;2023-09-08T18:00:06;20.77;;;18.73;;
2211;SDS011;48849;48.758;9.158;2023-09-08T18:02:34;23.30;;;21.00;;
2211;SDS011;48849;48.758;9.158;2023-09-08T18:05:18;27.90;;;24.87;;
2211;SDS011;48849;48.758;9.158;2023-09-08T18:07:57;27.87;;;24.90;;
2211;SDS011;48849;48.758;9.158;2023-09-08T18:10:26;25.93;;;23.27;;
2211;SDS011;48849;48.758;9.158;2023-09-08T18:13:23;27.40;;;21.87;;
2211;SDS011;48849;48.758;9.158;2023-09-08T18:16:03;22.57;;;20.00;;
2211;SDS011;48849;48.758;9.158;2023-09-08T18:18:47;18.83;;;16.50;;
2211;SDS011;48849;48.758;9.158;2023-09-08T18:21:24;16.60;;;14.70;;
2211;SDS011;48849;48.758;9.158;2023-09-08T18:24:06;19.20;;;15.80;;
2211;SDS011;48849;48.758;9.158;2023-09-08T18:26:44;21.00;;;18.73;;
2211;SDS011;48849;48.758;9.158;2023-09-08T18:29:12;17.67;;;15.97;;
2211;SDS011;48849;48.758;9.158;2023-09-08T18:31:45;18.30;;;16.50;;
2211;SDS011;48849;48.758;9.158;2023-09-08T18:34:31;18.13;;;16.33;;
2211;SDS011;48849;48.758;9.158;2023-09-08T18:36:58;15.13;;;13.07;;
2211;SDS011;48849;48.758;9.158;2023-09-08T18:39:39;13.63;;;11.70;;
2211;SDS011;48849;48.758;9.158;2023-09-08T18:48:27;14.50;;;13.00;;
2211;SDS011;48849;48.758;9.158;2023-09-08T18:54:15;14.57;;;13.03;;
2211;SDS011;48849;48.758;9.158;2023-09-08T18:56:43;12.80;;;11.50;;
2211;SDS011;48849;48.758;9.158;2023-09-08T18:59:10;11.00;;;9.57;;
2211;SDS011;48849;48.758;9.158;2023-09-08T19:01:37;12.70;;;10.73;;
2211;SDS011;48849;48.758;9.158;2023-09-08T19:04:04;10.37;;;9.37;;
2211;SDS011;48849;48.758;9.158;2023-09-08T19:06:31;12.30;;;9.70;;
2211;SDS011;48849;48.758;9.158;2023-09-08T19:08:58;9.93;;;9.03;;
2211;SDS011;48849;48.758;9.158;2023-09-08T19:11:25;9.63;;;8.73;;
2211;SDS011;48849;48.758;9.158;2023-09-08T19:13:53;10.30;;;9.40;;
2211;SDS011;48849;48.758;9.158;2023-09-08T19:16:19;12.43;;;11.13;;